createdAt,value
2024-05-09T00:00:30.384Z,0.70
2024-05-09T00:03:02.429Z,0.70
2024-05-09T00:05:29.156Z,0.70
2024-05-09T00:07:55.809Z,0.50
2024-05-09T00:10:29.131Z,0.70
2024-05-09T00:13:02.454Z,0.65
2024-05-09T00:15:28.967Z,0.75
2024-05-09T00:17:55.629Z,0.60
2024-05-09T00:20:28.396Z,0.80
2024-05-09T00:23:01.951Z,0.60
2024-05-09T00:25:28.490Z,0.63
2024-05-09T00:27:55.002Z,0.77
2024-05-09T00:30:30.630Z,0.80
2024-05-09T00:33:00.846Z,0.70
2024-05-09T00:35:27.657Z,0.68
2024-05-09T00:37:54.302Z,0.82
2024-05-09T00:40:30.788Z,0.80
2024-05-09T00:43:07.213Z,0.82
2024-05-09T00:45:34.193Z,0.63
2024-05-09T00:48:04.621Z,0.70
2024-05-09T00:50:36.398Z,0.68
2024-05-09T00:53:05.326Z,0.80
2024-05-09T00:55:31.881Z,0.80
2024-05-09T00:57:58.377Z,0.60
2024-05-09T01:03:07.354Z,0.50
2024-05-09T01:05:34.292Z,0.73
2024-05-09T01:08:01.168Z,0.77
2024-05-09T01:10:33.813Z,0.70
2024-05-09T01:13:02.669Z,0.90
2024-05-09T01:15:29.240Z,0.68
2024-05-09T01:17:56.293Z,0.65
2024-05-09T01:20:31.740Z,0.80
2024-05-09T01:23:06.632Z,0.77
2024-05-09T01:25:33.189Z,0.68
2024-05-09T01:27:59.736Z,0.70
2024-05-09T01:30:33.352Z,0.70
2024-05-09T01:33:02.398Z,0.75
2024-05-09T01:35:29.149Z,0.60
2024-05-09T01:37:55.764Z,0.80
2024-05-09T01:40:29.117Z,0.80
2024-05-09T01:43:03.126Z,0.77
2024-05-09T01:45:29.651Z,0.70
2024-05-09T01:47:56.366Z,0.70
2024-05-09T01:50:34.184Z,0.70
2024-05-09T01:53:05.501Z,0.80
2024-05-09T01:55:32.092Z,0.80
2024-05-09T01:57:58.599Z,0.80
2024-05-09T02:00:34.157Z,0.80
2024-05-09T02:03:13.883Z,0.70
2024-05-09T02:05:43.402Z,0.80
2024-05-09T02:08:17.754Z,0.75
2024-05-09T02:10:45.135Z,0.70
2024-05-09T02:13:12.324Z,0.80
2024-05-09T02:15:38.852Z,0.68
2024-05-09T02:18:05.657Z,0.80
2024-05-09T02:20:36.263Z,0.70
2024-05-09T02:23:04.628Z,0.80
2024-05-09T02:25:31.720Z,0.60
2024-05-09T02:27:58.261Z,0.77
2024-05-09T02:30:34.901Z,0.70
2024-05-09T02:33:06.327Z,0.70
2024-05-09T02:35:33.065Z,0.80
2024-05-09T02:37:59.960Z,0.75
2024-05-09T02:40:35.501Z,0.80
2024-05-09T02:43:04.780Z,0.90
2024-05-09T02:45:31.336Z,0.80
2024-05-09T02:47:58.255Z,0.90
2024-05-09T02:50:33.529Z,0.90
2024-05-09T02:53:04.799Z,0.80
2024-05-09T02:55:31.370Z,0.90
2024-05-09T02:57:57.866Z,0.63
2024-05-09T03:00:33.658Z,0.80
2024-05-09T03:03:05.237Z,0.88
2024-05-09T03:05:32.036Z,0.70
2024-05-09T03:07:58.709Z,0.70
2024-05-09T03:10:28.680Z,0.73
2024-05-09T03:12:55.850Z,0.50
2024-05-09T03:15:22.454Z,0.60
2024-05-09T03:17:49.201Z,0.75
2024-05-09T03:20:23.268Z,0.70
2024-05-09T03:22:52.777Z,0.80
2024-05-09T03:25:20.630Z,0.70
2024-05-09T03:27:47.918Z,0.70
2024-05-09T03:30:26.035Z,0.85
2024-05-09T03:33:01.079Z,0.70
2024-05-09T03:35:27.891Z,0.80
2024-05-09T03:37:54.521Z,0.80
2024-05-09T03:40:26.131Z,0.80
2024-05-09T03:42:53.303Z,0.90
2024-05-09T03:45:19.801Z,0.88
2024-05-09T03:47:46.479Z,0.90
2024-05-09T03:50:21.953Z,0.80
2024-05-09T03:52:52.566Z,1.00
2024-05-09T03:55:19.167Z,1.05
2024-05-09T03:57:45.680Z,0.70
2024-05-09T04:00:18.123Z,0.82
2024-05-09T04:02:52.741Z,1.10
2024-05-09T04:05:19.392Z,0.77
2024-05-09T04:07:46.063Z,0.70
2024-05-09T04:10:21.036Z,0.70
2024-05-09T04:12:54.387Z,0.70
2024-05-09T04:15:20.897Z,0.90
2024-05-09T04:17:47.702Z,1.08
2024-05-09T04:20:24.212Z,0.82
2024-05-09T04:22:59.808Z,0.70
2024-05-09T04:25:26.350Z,1.00
2024-05-09T04:27:52.880Z,0.70
2024-05-09T04:30:26.297Z,0.75
2024-05-09T04:33:02.195Z,0.73
2024-05-09T04:35:28.852Z,0.70
2024-05-09T04:37:55.491Z,0.68
2024-05-09T04:40:28.551Z,0.80
2024-05-09T04:43:00.127Z,0.70
2024-05-09T04:45:26.625Z,0.60
2024-05-09T04:47:54.052Z,0.80
2024-05-09T04:50:29.382Z,0.80
2024-05-09T04:53:02.193Z,0.70
2024-05-09T04:55:28.735Z,0.77
2024-05-09T04:57:55.247Z,0.60
2024-05-09T05:00:28.869Z,0.60
2024-05-09T05:03:02.068Z,0.63
2024-05-09T05:05:28.793Z,0.60
2024-05-09T05:07:55.411Z,0.52
2024-05-09T05:10:29.494Z,0.60
2024-05-09T05:13:01.883Z,0.68
2024-05-09T05:15:28.404Z,0.70
2024-05-09T05:17:55.130Z,0.50
2024-05-09T05:20:27.864Z,0.50
2024-05-09T05:22:59.759Z,0.50
2024-05-09T05:25:26.329Z,0.40
2024-05-09T05:27:52.844Z,0.50
2024-05-09T05:30:25.007Z,0.50
2024-05-09T05:32:55.644Z,0.40
2024-05-09T05:35:24.856Z,0.50
2024-05-09T05:37:51.433Z,0.30
2024-05-09T05:40:27.879Z,0.40
2024-05-09T05:43:01.600Z,0.40
2024-05-09T05:45:28.125Z,0.30
2024-05-09T05:47:54.978Z,0.30
2024-05-09T05:50:27.893Z,0.30
2024-05-09T05:53:01.730Z,0.30
2024-05-09T05:55:28.431Z,0.30
2024-05-09T05:57:54.952Z,0.30
2024-05-09T06:00:29.409Z,0.40
2024-05-09T06:03:02.287Z,0.30
2024-05-09T06:05:29.105Z,0.38
2024-05-09T06:07:55.799Z,0.32
2024-05-09T06:10:26.315Z,0.30
2024-05-09T06:13:01.293Z,0.30
2024-05-09T06:15:27.836Z,0.30
2024-05-09T06:17:54.609Z,0.20
2024-05-09T06:20:27.812Z,0.30
2024-05-09T06:23:01.587Z,0.30
2024-05-09T06:25:28.189Z,0.20
2024-05-09T06:27:54.698Z,0.25
2024-05-09T06:30:26.341Z,0.40
2024-05-09T06:33:01.800Z,0.30
2024-05-09T06:35:28.586Z,0.30
2024-05-09T06:37:55.260Z,0.30
2024-05-09T06:40:25.859Z,0.32
2024-05-09T06:43:00.612Z,0.30
2024-05-09T06:45:27.136Z,0.30
2024-05-09T06:47:53.819Z,0.30
2024-05-09T06:50:24.258Z,0.40
2024-05-09T06:52:54.491Z,0.40
2024-05-09T06:55:21.015Z,0.35
2024-05-09T06:57:47.555Z,0.40
2024-05-09T07:00:22.707Z,0.40
2024-05-09T07:02:57.331Z,0.50
2024-05-09T07:05:24.599Z,0.50
2024-05-09T07:07:51.262Z,0.40
2024-05-09T07:10:25.594Z,0.35
2024-05-09T07:12:58.945Z,0.40
2024-05-09T07:15:25.700Z,0.30
2024-05-09T07:17:52.346Z,0.50
2024-05-09T07:20:27.646Z,0.40
2024-05-09T07:23:00.754Z,0.40
2024-05-09T07:25:27.376Z,0.40
2024-05-09T07:27:53.969Z,0.40
2024-05-09T07:30:27.510Z,0.40
2024-05-09T07:32:59.756Z,0.40
2024-05-09T07:35:26.716Z,0.40
2024-05-09T07:37:53.466Z,0.30
2024-05-09T07:40:28.216Z,0.30
2024-05-09T07:42:59.927Z,0.30
2024-05-09T07:45:44.459Z,0.40
2024-05-09T07:49:44.742Z,0.30
2024-05-09T07:53:00.960Z,0.30
2024-05-09T07:53:49.725Z,0.35
2024-05-09T07:56:21.063Z,0.30
2024-05-09T07:58:49.978Z,0.30
2024-05-09T08:01:16.561Z,0.30
2024-05-09T08:03:43.284Z,0.40
2024-05-09T08:06:09.880Z,0.40
2024-05-09T08:08:36.472Z,0.40
2024-05-09T08:11:03.138Z,0.40
2024-05-09T08:13:29.864Z,0.50
2024-05-09T08:15:56.474Z,0.35
2024-05-09T08:18:23.152Z,0.30
2024-05-09T08:20:49.703Z,0.30
2024-05-09T08:23:16.214Z,0.40
2024-05-09T08:25:42.713Z,0.45
2024-05-09T08:28:10.912Z,0.35
2024-05-09T08:30:38.312Z,0.40
2024-05-09T08:33:06.523Z,0.30
2024-05-09T08:35:34.046Z,0.52
2024-05-09T08:38:02.817Z,0.40
2024-05-09T08:40:34.594Z,0.40
2024-05-09T08:43:03.243Z,0.40
2024-05-09T08:45:30.197Z,0.50
2024-05-09T08:47:56.962Z,0.32
2024-05-09T08:50:31.784Z,0.30
2024-05-09T08:53:04.605Z,0.30
2024-05-09T08:55:31.119Z,0.30
2024-05-09T08:57:57.628Z,0.38
2024-05-09T09:00:33.744Z,0.43
2024-05-09T09:03:03.681Z,0.30
2024-05-09T09:05:31.080Z,0.30
2024-05-09T09:07:57.777Z,0.40
2024-05-09T09:10:29.928Z,0.30
2024-05-09T09:12:59.051Z,0.30
2024-05-09T09:15:25.603Z,0.30
2024-05-09T09:17:58.323Z,0.38
2024-05-09T09:20:35.404Z,0.30
2024-05-09T09:23:03.349Z,0.30
2024-05-09T09:25:29.909Z,0.40
2024-05-09T09:27:57.814Z,0.40
2024-05-09T09:30:34.607Z,0.30
2024-05-09T09:33:04.423Z,0.30
2024-05-09T09:35:31.134Z,0.30
2024-05-09T09:37:57.692Z,0.38
2024-05-09T09:40:32.121Z,0.30
2024-05-09T09:43:00.854Z,0.30
2024-05-09T09:45:31.328Z,0.30
2024-05-09T09:47:57.995Z,0.30
2024-05-09T09:50:31.774Z,0.40
2024-05-09T09:53:01.106Z,0.30
2024-05-09T09:55:27.674Z,0.30
2024-05-09T09:57:55.575Z,0.38
2024-05-09T10:00:27.236Z,0.30
2024-05-09T10:02:58.977Z,0.30
2024-05-09T10:05:25.783Z,0.38
2024-05-09T10:07:52.588Z,0.30
2024-05-09T10:10:31.714Z,0.30
2024-05-09T10:13:08.881Z,0.35
2024-05-09T10:15:54.694Z,0.35
2024-05-09T10:18:21.429Z,0.40
2024-05-09T10:20:48.116Z,0.30
2024-05-09T10:23:32.850Z,0.30
2024-05-09T10:26:03.587Z,0.40
2024-05-09T10:28:33.560Z,0.38
2024-05-09T10:31:10.292Z,0.30
2024-05-09T10:33:55.704Z,0.40
2024-05-09T10:36:25.733Z,0.30
2024-05-09T10:38:53.565Z,0.30
2024-05-09T10:41:20.801Z,0.40
2024-05-09T10:43:47.522Z,0.30
2024-05-09T10:46:14.316Z,0.30
2024-05-09T10:48:42.287Z,0.20
2024-05-09T10:51:08.915Z,0.30
2024-05-09T10:53:42.079Z,0.30
2024-05-09T10:56:08.608Z,0.40
2024-05-09T10:58:35.139Z,0.30
2024-05-09T11:01:06.215Z,0.35
2024-05-09T11:03:33.826Z,0.40
2024-05-09T11:06:00.537Z,0.30
2024-05-09T11:08:27.105Z,0.30
2024-05-09T11:10:54.269Z,0.40
2024-05-09T11:13:34.475Z,0.30
2024-05-09T11:16:01.097Z,0.30
2024-05-09T11:18:30.855Z,0.38
2024-05-09T11:21:00.403Z,0.30
2024-05-09T11:23:27.332Z,0.30
2024-05-09T11:25:54.770Z,0.30
2024-05-09T11:28:21.908Z,0.20
2024-05-09T11:30:48.829Z,0.30
2024-05-09T11:33:18.259Z,0.30
2024-05-09T11:35:45.764Z,0.30
2024-05-09T11:38:12.439Z,0.30
2024-05-09T11:40:39.004Z,0.30
2024-05-09T11:43:05.888Z,0.30
2024-05-09T11:45:32.719Z,0.30
2024-05-09T11:47:59.412Z,0.30
2024-05-09T11:50:30.129Z,0.30
2024-05-09T11:53:01.405Z,0.30
2024-05-09T11:55:28.599Z,0.30
2024-05-09T11:57:55.358Z,0.30
2024-05-09T12:00:29.579Z,0.30
2024-05-09T12:03:03.011Z,0.30
2024-05-09T12:05:29.763Z,0.25
2024-05-09T12:07:56.360Z,0.30
2024-05-09T12:10:31.981Z,0.40
2024-05-09T12:13:00.881Z,0.30
2024-05-09T12:15:27.410Z,0.30
2024-05-09T12:17:54.652Z,0.30
2024-05-09T12:20:28.774Z,0.30
2024-05-09T12:23:02.240Z,0.30
2024-05-09T12:25:28.746Z,0.35
2024-05-09T12:27:55.328Z,0.30
2024-05-09T12:30:32.596Z,0.30
2024-05-09T12:33:04.126Z,0.30
2024-05-09T12:35:30.840Z,0.30
2024-05-09T12:37:57.350Z,0.30
2024-05-09T12:40:34.142Z,0.28
2024-05-09T12:43:04.105Z,0.20
2024-05-09T12:45:30.810Z,0.40
2024-05-09T12:47:57.500Z,0.30
2024-05-09T12:50:31.071Z,0.30
2024-05-09T12:52:59.580Z,0.30
2024-05-09T12:55:26.949Z,0.22
2024-05-09T12:57:53.605Z,0.30
2024-05-09T13:00:27.401Z,0.30
2024-05-09T13:02:58.235Z,0.30
2024-05-09T13:05:24.966Z,0.30
2024-05-09T13:07:51.630Z,0.30
2024-05-09T13:10:28.622Z,0.40
2024-05-09T13:12:58.925Z,0.30
2024-05-09T13:15:25.457Z,0.20
2024-05-09T13:17:51.987Z,0.30
2024-05-09T13:20:26.213Z,0.30
2024-05-09T13:23:00.656Z,0.30
2024-05-09T13:25:27.151Z,0.30
2024-05-09T13:27:53.710Z,0.30
2024-05-09T13:30:28.818Z,0.30
2024-05-09T13:33:02.135Z,0.30
2024-05-09T13:35:28.823Z,0.30
2024-05-09T13:37:55.770Z,0.30
2024-05-09T13:40:30.042Z,0.20
2024-05-09T13:43:00.688Z,0.30
2024-05-09T13:45:27.247Z,0.20
2024-05-09T13:47:54.216Z,0.30
2024-05-09T13:50:30.497Z,0.30
2024-05-09T13:53:00.676Z,0.35
2024-05-09T13:55:27.219Z,0.30
2024-05-09T13:57:53.948Z,0.30
2024-05-09T14:02:50.066Z,0.30
2024-05-09T14:05:16.952Z,0.35
2024-05-09T14:07:43.925Z,0.30
2024-05-09T14:10:19.763Z,0.40
2024-05-09T14:12:52.135Z,0.40
2024-05-09T14:15:18.673Z,0.30
2024-05-09T14:17:45.753Z,0.30
2024-05-09T14:20:16.434Z,0.40
2024-05-09T14:22:46.405Z,0.30
2024-05-09T14:25:13.161Z,0.30
2024-05-09T14:27:39.845Z,0.30
2024-05-09T14:30:11.803Z,0.30
2024-05-09T14:32:41.601Z,0.40
2024-05-09T14:35:08.248Z,0.35
2024-05-09T14:37:36.292Z,0.40
2024-05-09T14:40:06.884Z,0.38
2024-05-09T14:42:33.792Z,0.20
2024-05-09T14:45:00.363Z,0.30
2024-05-09T14:47:26.968Z,0.30
2024-05-09T14:49:53.714Z,0.38
2024-05-09T14:52:20.360Z,0.30
2024-05-09T14:54:47.900Z,0.40
2024-05-09T14:57:15.697Z,0.38
2024-05-09T14:59:42.201Z,0.30
2024-05-09T15:02:08.864Z,0.32
2024-05-09T15:04:35.521Z,0.30
2024-05-09T15:07:02.103Z,0.43
2024-05-09T15:09:34.724Z,0.38
2024-05-09T15:12:01.367Z,0.30
2024-05-09T15:14:27.869Z,0.30
2024-05-09T15:16:54.370Z,0.30
2024-05-09T15:19:20.986Z,0.30
2024-05-09T15:21:47.602Z,0.30
2024-05-09T15:24:14.121Z,0.20
2024-05-09T15:26:40.628Z,0.35
2024-05-09T15:29:07.152Z,0.30
2024-05-09T15:31:33.979Z,0.40
2024-05-09T15:34:00.738Z,0.30
2024-05-09T15:36:27.301Z,0.30
2024-05-09T15:38:53.910Z,0.30
2024-05-09T15:41:20.435Z,0.30
2024-05-09T15:43:46.930Z,0.38
2024-05-09T15:46:13.518Z,0.30
2024-05-09T15:48:42.623Z,0.30
2024-05-09T15:51:10.797Z,0.30
2024-05-09T15:53:37.317Z,0.30
2024-05-09T15:56:03.943Z,0.35
2024-05-09T15:58:30.474Z,0.30
2024-05-09T16:00:57.187Z,0.40
2024-05-09T16:03:23.832Z,0.40
2024-05-09T16:05:50.604Z,0.30
2024-05-09T16:08:17.192Z,0.35
2024-05-09T16:10:44.898Z,0.35
2024-05-09T16:13:12.575Z,0.30
2024-05-09T16:15:39.318Z,0.32
2024-05-09T16:18:06.165Z,0.32
2024-05-09T16:20:39.059Z,0.30
2024-05-09T16:23:08.764Z,0.38
2024-05-09T16:25:35.690Z,0.30
2024-05-09T16:28:03.786Z,0.43
2024-05-09T16:30:35.341Z,0.30
2024-05-09T16:33:04.217Z,0.40
2024-05-09T16:35:31.495Z,0.30
2024-05-09T16:37:58.021Z,0.30
2024-05-09T16:40:34.373Z,0.40
2024-05-09T16:43:06.264Z,0.40
2024-05-09T16:45:33.165Z,0.40
2024-05-09T16:48:00.265Z,0.30
2024-05-09T16:50:32.387Z,0.30
2024-05-09T16:53:00.977Z,0.40
2024-05-09T16:55:27.739Z,0.50
2024-05-09T16:57:54.633Z,0.40
2024-05-09T17:00:31.256Z,0.40
2024-05-09T17:03:06.416Z,0.32
2024-05-09T17:05:33.743Z,0.40
2024-05-09T17:08:00.598Z,0.50
2024-05-09T17:10:32.622Z,0.40
2024-05-09T17:13:01.428Z,0.40
2024-05-09T17:15:28.084Z,0.50
2024-05-09T17:17:54.686Z,0.30
2024-05-09T17:20:29.434Z,0.50
2024-05-09T17:23:00.330Z,0.40
2024-05-09T17:25:26.958Z,0.40
2024-05-09T17:27:53.569Z,0.47
2024-05-09T17:30:28.654Z,0.50
2024-05-09T17:33:00.942Z,0.40
2024-05-09T17:35:27.614Z,0.40
2024-05-09T17:37:54.132Z,0.43
2024-05-09T17:40:30.065Z,0.40
2024-05-09T17:43:00.222Z,0.40
2024-05-09T17:45:26.782Z,0.60
2024-05-09T17:47:53.666Z,0.40
2024-05-09T17:50:27.446Z,0.40
2024-05-09T17:53:00.569Z,0.57
2024-05-09T17:55:27.265Z,0.40
2024-05-09T17:57:53.936Z,0.50
2024-05-09T18:00:29.170Z,0.50
2024-05-09T18:03:03.739Z,0.40
2024-05-09T18:05:30.519Z,0.40
2024-05-09T18:07:57.265Z,0.50
2024-05-09T18:10:30.081Z,0.50
2024-05-09T18:13:02.493Z,0.40
2024-05-09T18:15:29.109Z,0.45
2024-05-09T18:17:55.907Z,0.40
2024-05-09T18:20:32.720Z,0.40
2024-05-09T18:23:07.460Z,0.30
2024-05-09T18:25:34.022Z,0.40
2024-05-09T18:28:02.077Z,0.40
2024-05-09T18:30:34.381Z,0.40
2024-05-09T18:33:03.196Z,0.40
2024-05-09T18:35:29.886Z,0.50
2024-05-09T18:37:56.401Z,0.40
2024-05-09T18:40:31.270Z,0.40
2024-05-09T18:43:01.876Z,0.40
2024-05-09T18:45:28.687Z,0.52
2024-05-09T18:47:55.667Z,0.50
2024-05-09T18:50:31.842Z,0.40
2024-05-09T18:53:02.504Z,0.40
2024-05-09T18:55:29.009Z,0.38
2024-05-09T18:57:55.572Z,0.40
2024-05-09T19:00:32.924Z,0.40
2024-05-09T19:03:03.118Z,0.40
2024-05-09T19:05:30.111Z,0.30
2024-05-09T19:07:56.826Z,0.40
2024-05-09T19:10:26.400Z,0.30
2024-05-09T19:12:58.779Z,0.40
2024-05-09T19:15:25.388Z,0.32
2024-05-09T19:17:52.022Z,0.40
2024-05-09T19:20:25.411Z,0.50
2024-05-09T19:22:58.359Z,0.50
2024-05-09T19:25:24.939Z,0.45
2024-05-09T19:27:51.575Z,0.40
2024-05-09T19:30:25.670Z,0.50
2024-05-09T19:33:01.176Z,0.32
2024-05-09T19:35:27.921Z,0.60
2024-05-09T19:37:54.470Z,0.40
2024-05-09T19:40:28.864Z,0.40
2024-05-09T19:42:58.608Z,0.50
2024-05-09T19:45:25.226Z,0.47
2024-05-09T19:47:51.923Z,0.45
2024-05-09T19:50:26.651Z,0.40
2024-05-09T19:52:59.327Z,0.52
2024-05-09T19:55:25.981Z,0.40
2024-05-09T19:57:52.631Z,0.35
2024-05-09T20:00:26.022Z,0.50
2024-05-09T20:02:56.146Z,0.40
2024-05-09T20:05:23.303Z,0.43
2024-05-09T20:07:50.181Z,0.50
2024-05-09T20:10:23.617Z,0.35
2024-05-09T20:12:53.279Z,0.50
2024-05-09T20:15:19.802Z,0.50
2024-05-09T20:17:46.405Z,0.50
2024-05-09T20:20:23.524Z,0.40
2024-05-09T20:22:55.250Z,0.50
2024-05-09T20:25:21.817Z,0.55
2024-05-09T20:27:48.373Z,0.40
2024-05-09T20:30:24.633Z,0.40
2024-05-09T20:32:55.374Z,0.43
2024-05-09T20:35:21.914Z,0.60
2024-05-09T20:37:48.425Z,0.47
2024-05-09T20:40:21.633Z,0.50
2024-05-09T20:42:55.341Z,0.40
2024-05-09T20:45:21.874Z,0.50
2024-05-09T20:47:49.546Z,0.47
2024-05-09T20:50:23.973Z,0.50
2024-05-09T20:52:59.280Z,0.60
2024-05-09T20:55:25.817Z,0.50
2024-05-09T20:57:52.470Z,0.50
2024-05-09T21:00:22.635Z,0.60
2024-05-09T21:02:56.343Z,0.52
2024-05-09T21:05:22.942Z,0.70
2024-05-09T21:07:49.514Z,0.40
2024-05-09T21:10:22.316Z,0.50
2024-05-09T21:12:49.431Z,0.40
2024-05-09T21:15:15.978Z,0.50
2024-05-09T21:17:42.554Z,0.40
2024-05-09T21:20:14.502Z,0.50
2024-05-09T21:22:44.222Z,0.40
2024-05-09T21:25:10.875Z,0.60
2024-05-09T21:27:37.541Z,0.55
2024-05-09T21:30:06.050Z,0.40
2024-05-09T21:32:34.332Z,0.50
2024-05-09T21:35:00.899Z,0.50
2024-05-09T21:37:27.399Z,0.52
2024-05-09T21:39:53.956Z,0.50
2024-05-09T21:42:20.499Z,0.50
2024-05-09T21:44:47.023Z,0.52
2024-05-09T21:47:13.571Z,0.50
2024-05-09T21:49:40.205Z,0.50
2024-05-09T21:52:06.775Z,0.50
2024-05-09T21:54:33.384Z,0.50
2024-05-09T21:56:59.911Z,0.45
2024-05-09T21:59:26.491Z,0.50
2024-05-09T22:01:53.098Z,0.40
2024-05-09T22:04:19.776Z,0.50
2024-05-09T22:06:46.401Z,0.40
2024-05-09T22:09:12.925Z,0.63
2024-05-09T22:11:39.473Z,0.50
2024-05-09T22:14:06.011Z,0.40
2024-05-09T22:16:32.577Z,0.50
2024-05-09T22:18:59.297Z,0.40
2024-05-09T22:21:25.874Z,0.50
2024-05-09T22:23:52.382Z,0.40
2024-05-09T22:26:18.891Z,0.40
2024-05-09T22:28:45.402Z,0.50
2024-05-09T22:31:11.974Z,0.60
2024-05-09T22:33:38.769Z,0.52
2024-05-09T22:36:07.316Z,0.50
2024-05-09T22:38:33.827Z,0.40
2024-05-09T22:41:00.522Z,0.50
2024-05-09T22:43:27.189Z,0.50
2024-05-09T22:45:53.902Z,0.35
2024-05-09T22:48:20.891Z,0.40
2024-05-09T22:50:47.565Z,0.40
2024-05-09T22:53:14.120Z,0.40
2024-05-09T22:55:40.718Z,0.40
2024-05-09T22:58:07.523Z,0.50
2024-05-09T23:00:34.252Z,0.57
2024-05-09T23:03:01.375Z,0.40
2024-05-09T23:05:28.475Z,0.52
2024-05-09T23:07:55.194Z,0.40
2024-05-09T23:10:28.256Z,0.47
2024-05-09T23:13:01.327Z,0.60
2024-05-09T23:15:28.061Z,0.50
2024-05-09T23:17:54.754Z,0.60
2024-05-09T23:20:30.087Z,0.40
2024-05-09T23:23:03.576Z,0.40
2024-05-09T23:25:30.210Z,0.60
2024-05-09T23:27:56.933Z,0.50
2024-05-09T23:30:33.208Z,0.50
2024-05-09T23:33:04.584Z,0.60
2024-05-09T23:35:31.218Z,0.50
2024-05-09T23:37:57.779Z,0.55
2024-05-09T23:40:34.658Z,0.52
2024-05-09T23:43:05.188Z,0.60
2024-05-09T23:45:31.748Z,0.52
2024-05-09T23:47:58.418Z,0.47
2024-05-09T23:50:33.224Z,0.60
2024-05-09T23:53:02.943Z,0.40
2024-05-09T23:55:30.010Z,0.60
2024-05-09T23:57:56.557Z,0.40
